sensor_id;sensor_type;location;lat;lon;timestamp;temperature;humidity
39865;DHT22;25538;48.392;9.976;2022-08-03T00:00:52;19.90;99.90
39865;DHT22;25538;48.392;9.976;2022-08-03T00:03:18;19.80;99.90
39865;DHT22;25538;48.392;9.976;2022-08-03T00:05:44;19.80;99.90
39865;DHT22;25538;48.392;9.976;2022-08-03T00:08:09;19.70;99.90
39865;DHT22;25538;48.392;9.976;2022-08-03T00:10:35;19.70;99.90
39865;DHT22;25538;48.392;9.976;2022-08-03T00:13:03;19.70;99.90
39865;DHT22;25538;48.392;9.976;2022-08-03T00:15:29;19.80;99.90
39865;DHT22;25538;48.392;9.976;2022-08-03T00:17:55;19.70;99.90
39865;DHT22;25538;48.392;9.976;2022-08-03T00:20:21;19.60;99.90
39865;DHT22;25538;48.392;9.976;2022-08-03T00:22:47;19.60;99.90
39865;DHT22;25538;48.392;9.976;2022-08-03T00:25:13;19.70;99.90
39865;DHT22;25538;48.392;9.976;2022-08-03T00:27:39;19.60;99.90
39865;DHT22;25538;48.392;9.976;2022-08-03T00:30:05;19.60;99.90
39865;DHT22;25538;48.392;9.976;2022-08-03T00:32:31;19.60;99.90
39865;DHT22;25538;48.392;9.976;2022-08-03T00:34:57;19.50;99.90
39865;DHT22;25538;48.392;9.976;2022-08-03T00:37:23;19.60;99.90
39865;DHT22;25538;48.392;9.976;2022-08-03T00:39:49;19.50;99.90
39865;DHT22;25538;48.392;9.976;2022-08-03T00:42:15;19.40;99.90
39865;DHT22;25538;48.392;9.976;2022-08-03T00:44:44;19.30;99.90
39865;DHT22;25538;48.392;9.976;2022-08-03T00:47:11;19.30;99.90
39865;DHT22;25538;48.392;9.976;2022-08-03T00:49:38;19.30;99.90
39865;DHT22;25538;48.392;9.976;2022-08-03T00:52:06;19.30;99.90
39865;DHT22;25538;48.392;9.976;2022-08-03T00:54:33;19.30;99.90
39865;DHT22;25538;48.392;9.976;2022-08-03T00:57:00;19.20;99.90
39865;DHT22;25538;48.392;9.976;2022-08-03T00:59:26;19.20;99.90
39865;DHT22;25538;48.392;9.976;2022-08-03T01:01:53;19.10;99.90
39865;DHT22;25538;48.392;9.976;2022-08-03T01:04:19;19.10;99.90
39865;DHT22;25538;48.392;9.976;2022-08-03T01:09:51;19.00;99.90
39865;DHT22;25538;48.392;9.976;2022-08-03T01:12:34;19.00;99.90
39865;DHT22;25538;48.392;9.976;2022-08-03T01:17:54;18.90;99.90
39865;DHT22;25538;48.392;9.976;2022-08-03T01:20:21;19.00;99.90
39865;DHT22;25538;48.392;9.976;2022-08-03T01:23:09;19.00;99.90
39865;DHT22;25538;48.392;9.976;2022-08-03T01:28:35;19.00;99.90
39865;DHT22;25538;48.392;9.976;2022-08-03T01:31:06;18.90;99.90
39865;DHT22;25538;48.392;9.976;2022-08-03T01:33:42;18.90;99.90
39865;DHT22;25538;48.392;9.976;2022-08-03T01:36:23;18.90;99.90
39865;DHT22;25538;48.392;9.976;2022-08-03T01:38:53;18.80;99.90
39865;DHT22;25538;48.392;9.976;2022-08-03T01:41:30;18.70;99.90
39865;DHT22;25538;48.392;9.976;2022-08-03T01:43:59;18.80;99.90
39865;DHT22;25538;48.392;9.976;2022-08-03T01:46:28;18.80;99.90
39865;DHT22;25538;48.392;9.976;2022-08-03T01:48:55;18.80;99.90
39865;DHT22;25538;48.392;9.976;2022-08-03T01:51:22;18.70;99.90
39865;DHT22;25538;48.392;9.976;2022-08-03T01:53:49;18.60;99.90
39865;DHT22;25538;48.392;9.976;2022-08-03T01:56:18;18.70;99.90
39865;DHT22;25538;48.392;9.976;2022-08-03T01:58:45;18.60;99.90
39865;DHT22;25538;48.392;9.976;2022-08-03T02:01:14;18.60;99.90
39865;DHT22;25538;48.392;9.976;2022-08-03T02:03:42;18.50;99.90
39865;DHT22;25538;48.392;9.976;2022-08-03T02:06:11;18.50;99.90
39865;DHT22;25538;48.392;9.976;2022-08-03T02:08:42;18.40;99.90
39865;DHT22;25538;48.392;9.976;2022-08-03T02:11:09;18.40;99.90
39865;DHT22;25538;48.392;9.976;2022-08-03T02:13:37;18.40;99.90
39865;DHT22;25538;48.392;9.976;2022-08-03T02:16:04;18.40;99.90
39865;DHT22;25538;48.392;9.976;2022-08-03T02:18:33;18.40;99.90
39865;DHT22;25538;48.392;9.976;2022-08-03T02:21:01;18.40;99.90
39865;DHT22;25538;48.392;9.976;2022-08-03T02:23:29;18.40;99.90
39865;DHT22;25538;48.392;9.976;2022-08-03T02:26:02;18.30;99.90
39865;DHT22;25538;48.392;9.976;2022-08-03T02:28:34;18.40;99.90
39865;DHT22;25538;48.392;9.976;2022-08-03T02:31:04;18.30;99.90
39865;DHT22;25538;48.392;9.976;2022-08-03T02:33:42;18.30;99.90
39865;DHT22;25538;48.392;9.976;2022-08-03T02:36:10;18.30;99.90
39865;DHT22;25538;48.392;9.976;2022-08-03T02:38:40;18.30;99.90
39865;DHT22;25538;48.392;9.976;2022-08-03T02:41:13;18.30;99.90
39865;DHT22;25538;48.392;9.976;2022-08-03T02:43:41;18.20;99.90
39865;DHT22;25538;48.392;9.976;2022-08-03T02:46:08;18.20;99.90
39865;DHT22;25538;48.392;9.976;2022-08-03T02:48:40;18.20;99.90
39865;DHT22;25538;48.392;9.976;2022-08-03T02:51:06;18.20;99.90
39865;DHT22;25538;48.392;9.976;2022-08-03T02:53:33;18.20;99.90
39865;DHT22;25538;48.392;9.976;2022-08-03T02:56:00;18.10;99.90
39865;DHT22;25538;48.392;9.976;2022-08-03T02:58:30;18.10;99.90
39865;DHT22;25538;48.392;9.976;2022-08-03T03:00:56;18.10;99.90
39865;DHT22;25538;48.392;9.976;2022-08-03T03:03:22;18.20;99.90
39865;DHT22;25538;48.392;9.976;2022-08-03T03:05:50;18.10;99.90
39865;DHT22;25538;48.392;9.976;2022-08-03T03:08:18;18.10;99.90
39865;DHT22;25538;48.392;9.976;2022-08-03T03:10:45;18.00;99.90
39865;DHT22;25538;48.392;9.976;2022-08-03T03:13:14;18.00;99.90
39865;DHT22;25538;48.392;9.976;2022-08-03T03:15:41;17.90;99.90
39865;DHT22;25538;48.392;9.976;2022-08-03T03:18:08;17.80;99.90
39865;DHT22;25538;48.392;9.976;2022-08-03T03:20:36;17.80;99.90
39865;DHT22;25538;48.392;9.976;2022-08-03T03:23:04;17.80;99.90
39865;DHT22;25538;48.392;9.976;2022-08-03T03:25:31;17.80;99.90
39865;DHT22;25538;48.392;9.976;2022-08-03T03:27:58;17.80;99.90
39865;DHT22;25538;48.392;9.976;2022-08-03T03:30:25;17.80;99.90
39865;DHT22;25538;48.392;9.976;2022-08-03T03:32:51;17.70;99.90
39865;DHT22;25538;48.392;9.976;2022-08-03T03:35:18;17.70;99.90
39865;DHT22;25538;48.392;9.976;2022-08-03T03:37:44;17.60;99.90
39865;DHT22;25538;48.392;9.976;2022-08-03T03:40:10;17.60;99.90
39865;DHT22;25538;48.392;9.976;2022-08-03T03:42:36;17.50;99.90
39865;DHT22;25538;48.392;9.976;2022-08-03T03:45:04;17.50;99.90
39865;DHT22;25538;48.392;9.976;2022-08-03T03:47:30;17.50;99.90
39865;DHT22;25538;48.392;9.976;2022-08-03T03:49:57;17.50;99.90
39865;DHT22;25538;48.392;9.976;2022-08-03T03:52:23;17.40;99.90
39865;DHT22;25538;48.392;9.976;2022-08-03T03:54:49;17.40;99.90
39865;DHT22;25538;48.392;9.976;2022-08-03T03:57:15;17.40;99.90
39865;DHT22;25538;48.392;9.976;2022-08-03T03:59:41;17.40;99.90
39865;DHT22;25538;48.392;9.976;2022-08-03T04:02:09;17.50;99.90
39865;DHT22;25538;48.392;9.976;2022-08-03T04:04:36;17.50;99.90
39865;DHT22;25538;48.392;9.976;2022-08-03T04:07:24;17.50;99.90
39865;DHT22;25538;48.392;9.976;2022-08-03T04:10:20;17.50;99.90
39865;DHT22;25538;48.392;9.976;2022-08-03T04:13:08;17.50;99.90
39865;DHT22;25538;48.392;9.976;2022-08-03T04:15:36;17.50;99.90
39865;DHT22;25538;48.392;9.976;2022-08-03T04:18:02;17.50;99.90
39865;DHT22;25538;48.392;9.976;2022-08-03T04:20:31;17.50;99.90
39865;DHT22;25538;48.392;9.976;2022-08-03T04:22:58;17.50;99.90
39865;DHT22;25538;48.392;9.976;2022-08-03T04:25:29;17.50;99.90
39865;DHT22;25538;48.392;9.976;2022-08-03T04:27:56;17.50;99.90
39865;DHT22;25538;48.392;9.976;2022-08-03T04:30:26;17.50;99.90
39865;DHT22;25538;48.392;9.976;2022-08-03T04:32:55;17.50;99.90
39865;DHT22;25538;48.392;9.976;2022-08-03T04:35:23;17.40;99.90
39865;DHT22;25538;48.392;9.976;2022-08-03T04:37:51;17.50;99.90
39865;DHT22;25538;48.392;9.976;2022-08-03T04:40:21;17.50;99.90
39865;DHT22;25538;48.392;9.976;2022-08-03T04:42:52;17.50;99.90
39865;DHT22;25538;48.392;9.976;2022-08-03T04:45:20;17.60;99.90
39865;DHT22;25538;48.392;9.976;2022-08-03T04:47:48;17.60;99.90
39865;DHT22;25538;48.392;9.976;2022-08-03T04:50:15;17.60;99.90
39865;DHT22;25538;48.392;9.976;2022-08-03T04:52:41;17.60;99.90
39865;DHT22;25538;48.392;9.976;2022-08-03T04:55:07;17.60;99.90
39865;DHT22;25538;48.392;9.976;2022-08-03T04:57:33;17.70;99.90
39865;DHT22;25538;48.392;9.976;2022-08-03T04:59:59;17.80;99.90
39865;DHT22;25538;48.392;9.976;2022-08-03T05:02:25;17.80;99.90
39865;DHT22;25538;48.392;9.976;2022-08-03T05:04:51;17.90;99.90
39865;DHT22;25538;48.392;9.976;2022-08-03T05:07:17;17.90;99.90
39865;DHT22;25538;48.392;9.976;2022-08-03T05:09:44;17.90;99.90
39865;DHT22;25538;48.392;9.976;2022-08-03T05:12:10;17.90;99.90
39865;DHT22;25538;48.392;9.976;2022-08-03T05:14:37;18.00;99.90
39865;DHT22;25538;48.392;9.976;2022-08-03T05:17:08;18.10;99.90
39865;DHT22;25538;48.392;9.976;2022-08-03T05:19:34;18.20;99.90
39865;DHT22;25538;48.392;9.976;2022-08-03T05:22:00;18.20;99.90
39865;DHT22;25538;48.392;9.976;2022-08-03T05:24:26;18.20;99.90
39865;DHT22;25538;48.392;9.976;2022-08-03T05:26:52;18.20;99.90
39865;DHT22;25538;48.392;9.976;2022-08-03T05:29:18;18.20;99.90
39865;DHT22;25538;48.392;9.976;2022-08-03T05:31:44;18.30;99.90
39865;DHT22;25538;48.392;9.976;2022-08-03T05:34:10;18.40;99.90
39865;DHT22;25538;48.392;9.976;2022-08-03T05:36:36;18.40;99.90
39865;DHT22;25538;48.392;9.976;2022-08-03T05:39:02;18.50;99.90
39865;DHT22;25538;48.392;9.976;2022-08-03T05:41:27;18.60;99.90
39865;DHT22;25538;48.392;9.976;2022-08-03T05:43:54;18.70;99.90
39865;DHT22;25538;48.392;9.976;2022-08-03T05:46:21;18.80;99.90
39865;DHT22;25538;48.392;9.976;2022-08-03T05:48:47;18.80;99.90
39865;DHT22;25538;48.392;9.976;2022-08-03T05:51:13;18.90;99.90
39865;DHT22;25538;48.392;9.976;2022-08-03T05:53:40;19.00;99.90
39865;DHT22;25538;48.392;9.976;2022-08-03T05:56:07;19.10;99.90
39865;DHT22;25538;48.392;9.976;2022-08-03T05:58:33;19.20;99.90
39865;DHT22;25538;48.392;9.976;2022-08-03T06:00:59;19.30;99.90
39865;DHT22;25538;48.392;9.976;2022-08-03T06:03:25;19.40;99.90
39865;DHT22;25538;48.392;9.976;2022-08-03T06:05:52;19.40;99.90
39865;DHT22;25538;48.392;9.976;2022-08-03T06:08:19;19.50;99.90
39865;DHT22;25538;48.392;9.976;2022-08-03T06:10:45;19.60;99.90
39865;DHT22;25538;48.392;9.976;2022-08-03T06:13:11;19.60;99.90
39865;DHT22;25538;48.392;9.976;2022-08-03T06:15:37;19.70;99.90
39865;DHT22;25538;48.392;9.976;2022-08-03T06:18:02;19.80;99.90
39865;DHT22;25538;48.392;9.976;2022-08-03T06:20:28;19.90;99.90
39865;DHT22;25538;48.392;9.976;2022-08-03T06:22:54;20.00;99.90
39865;DHT22;25538;48.392;9.976;2022-08-03T06:25:20;20.10;99.90
39865;DHT22;25538;48.392;9.976;2022-08-03T06:27:46;20.20;99.90
39865;DHT22;25538;48.392;9.976;2022-08-03T06:30:12;20.30;99.90
39865;DHT22;25538;48.392;9.976;2022-08-03T06:32:39;20.40;99.90
39865;DHT22;25538;48.392;9.976;2022-08-03T06:35:07;20.50;99.90
39865;DHT22;25538;48.392;9.976;2022-08-03T06:37:43;20.60;99.90
39865;DHT22;25538;48.392;9.976;2022-08-03T06:40:12;20.60;99.90
39865;DHT22;25538;48.392;9.976;2022-08-03T06:42:38;20.80;99.90
39865;DHT22;25538;48.392;9.976;2022-08-03T06:45:05;20.90;99.90
39865;DHT22;25538;48.392;9.976;2022-08-03T06:47:32;21.00;99.90
39865;DHT22;25538;48.392;9.976;2022-08-03T06:49:57;21.10;99.90
39865;DHT22;25538;48.392;9.976;2022-08-03T06:52:23;21.20;99.90
39865;DHT22;25538;48.392;9.976;2022-08-03T06:54:49;21.30;99.90
39865;DHT22;25538;48.392;9.976;2022-08-03T06:57:15;21.40;99.90
39865;DHT22;25538;48.392;9.976;2022-08-03T06:59:43;21.50;99.90
39865;DHT22;25538;48.392;9.976;2022-08-03T07:02:09;21.70;99.90
39865;DHT22;25538;48.392;9.976;2022-08-03T07:04:36;21.80;99.90
39865;DHT22;25538;48.392;9.976;2022-08-03T07:07:02;21.90;99.90
39865;DHT22;25538;48.392;9.976;2022-08-03T07:09:28;22.00;99.90
39865;DHT22;25538;48.392;9.976;2022-08-03T07:11:54;22.10;99.90
39865;DHT22;25538;48.392;9.976;2022-08-03T07:14:21;22.30;99.90
39865;DHT22;25538;48.392;9.976;2022-08-03T07:16:47;22.40;99.90
39865;DHT22;25538;48.392;9.976;2022-08-03T07:19:13;22.60;99.90
39865;DHT22;25538;48.392;9.976;2022-08-03T07:21:39;22.70;99.90
39865;DHT22;25538;48.392;9.976;2022-08-03T07:24:05;22.90;99.90
39865;DHT22;25538;48.392;9.976;2022-08-03T07:26:31;23.00;99.90
39865;DHT22;25538;48.392;9.976;2022-08-03T07:28:57;23.10;99.90
39865;DHT22;25538;48.392;9.976;2022-08-03T07:31:25;23.20;99.90
39865;DHT22;25538;48.392;9.976;2022-08-03T07:33:51;23.30;99.90
39865;DHT22;25538;48.392;9.976;2022-08-03T07:36:17;23.40;99.90
39865;DHT22;25538;48.392;9.976;2022-08-03T07:38:43;23.60;99.90
39865;DHT22;25538;48.392;9.976;2022-08-03T07:41:09;23.70;99.90
39865;DHT22;25538;48.392;9.976;2022-08-03T07:43:35;23.80;99.90
39865;DHT22;25538;48.392;9.976;2022-08-03T07:46:01;24.00;99.90
39865;DHT22;25538;48.392;9.976;2022-08-03T07:48:27;24.20;99.90
39865;DHT22;25538;48.392;9.976;2022-08-03T07:50:53;24.40;99.90
39865;DHT22;25538;48.392;9.976;2022-08-03T07:53:18;24.70;99.90
39865;DHT22;25538;48.392;9.976;2022-08-03T07:55:44;24.80;99.90
39865;DHT22;25538;48.392;9.976;2022-08-03T07:58:11;25.00;99.90
39865;DHT22;25538;48.392;9.976;2022-08-03T08:00:40;25.20;99.90
39865;DHT22;25538;48.392;9.976;2022-08-03T08:03:06;25.30;99.90
39865;DHT22;25538;48.392;9.976;2022-08-03T08:05:33;25.50;99.90
39865;DHT22;25538;48.392;9.976;2022-08-03T08:08:03;25.70;99.90
39865;DHT22;25538;48.392;9.976;2022-08-03T08:10:29;25.80;99.90
39865;DHT22;25538;48.392;9.976;2022-08-03T08:12:56;26.00;99.90
39865;DHT22;25538;48.392;9.976;2022-08-03T08:15:22;26.40;99.90
39865;DHT22;25538;48.392;9.976;2022-08-03T08:17:53;26.60;99.90
39865;DHT22;25538;48.392;9.976;2022-08-03T08:20:22;26.90;99.90
39865;DHT22;25538;48.392;9.976;2022-08-03T08:22:48;27.10;99.90
39865;DHT22;25538;48.392;9.976;2022-08-03T08:25:14;27.30;99.90
39865;DHT22;25538;48.392;9.976;2022-08-03T08:27:45;27.50;99.90
39865;DHT22;25538;48.392;9.976;2022-08-03T08:30:12;27.80;99.90
39865;DHT22;25538;48.392;9.976;2022-08-03T08:32:38;27.90;99.90
39865;DHT22;25538;48.392;9.976;2022-08-03T08:35:05;28.10;99.90
39865;DHT22;25538;48.392;9.976;2022-08-03T08:37:31;28.50;99.90
39865;DHT22;25538;48.392;9.976;2022-08-03T08:39:58;28.90;99.90
39865;DHT22;25538;48.392;9.976;2022-08-03T08:42:24;29.20;99.90
39865;DHT22;25538;48.392;9.976;2022-08-03T08:44:50;29.50;99.90
39865;DHT22;25538;48.392;9.976;2022-08-03T08:47:18;29.70;99.90
39865;DHT22;25538;48.392;9.976;2022-08-03T08:49:45;30.00;98.50
39865;DHT22;25538;48.392;9.976;2022-08-03T08:52:13;30.10;97.90
39865;DHT22;25538;48.392;9.976;2022-08-03T08:54:40;30.30;95.70
39865;DHT22;25538;48.392;9.976;2022-08-03T08:57:08;30.60;94.50
39865;DHT22;25538;48.392;9.976;2022-08-03T08:59:35;30.60;94.30
39865;DHT22;25538;48.392;9.976;2022-08-03T09:02:01;31.00;91.50
39865;DHT22;25538;48.392;9.976;2022-08-03T09:04:28;31.50;90.90
39865;DHT22;25538;48.392;9.976;2022-08-03T09:06:55;31.90;89.30
39865;DHT22;25538;48.392;9.976;2022-08-03T09:09:21;32.10;85.80
39865;DHT22;25538;48.392;9.976;2022-08-03T09:11:47;32.20;83.10
39865;DHT22;25538;48.392;9.976;2022-08-03T09:14:14;31.90;82.50
39865;DHT22;25538;48.392;9.976;2022-08-03T09:16:57;32.60;79.40
39865;DHT22;25538;48.392;9.976;2022-08-03T09:19:27;33.10;78.10
39865;DHT22;25538;48.392;9.976;2022-08-03T09:22:15;33.80;74.40
39865;DHT22;25538;48.392;9.976;2022-08-03T09:24:59;33.60;74.60
39865;DHT22;25538;48.392;9.976;2022-08-03T09:27:25;34.10;69.00
39865;DHT22;25538;48.392;9.976;2022-08-03T09:29:52;34.00;70.30
39865;DHT22;25538;48.392;9.976;2022-08-03T09:32:23;34.50;67.60
39865;DHT22;25538;48.392;9.976;2022-08-03T09:34:50;35.00;66.20
39865;DHT22;25538;48.392;9.976;2022-08-03T09:37:18;35.60;63.20
39865;DHT22;25538;48.392;9.976;2022-08-03T09:39:45;36.00;60.00
39865;DHT22;25538;48.392;9.976;2022-08-03T09:42:17;35.90;60.00
39865;DHT22;25538;48.392;9.976;2022-08-03T09:44:44;36.30;59.70
39865;DHT22;25538;48.392;9.976;2022-08-03T09:47:12;36.70;57.00
39865;DHT22;25538;48.392;9.976;2022-08-03T09:49:40;37.10;55.30
39865;DHT22;25538;48.392;9.976;2022-08-03T09:52:18;37.50;53.40
39865;DHT22;25538;48.392;9.976;2022-08-03T09:54:51;37.70;52.40
39865;DHT22;25538;48.392;9.976;2022-08-03T09:57:22;38.20;52.80
39865;DHT22;25538;48.392;9.976;2022-08-03T09:59:49;38.60;50.90
39865;DHT22;25538;48.392;9.976;2022-08-03T10:02:23;39.10;47.80
39865;DHT22;25538;48.392;9.976;2022-08-03T10:04:50;38.80;47.90
39865;DHT22;25538;48.392;9.976;2022-08-03T10:07:22;38.50;48.80
39865;DHT22;25538;48.392;9.976;2022-08-03T10:09:55;39.00;47.70
39865;DHT22;25538;48.392;9.976;2022-08-03T10:12:22;39.40;46.80
39865;DHT22;25538;48.392;9.976;2022-08-03T10:14:48;38.70;46.40
39865;DHT22;25538;48.392;9.976;2022-08-03T10:17:15;38.10;48.00
39865;DHT22;25538;48.392;9.976;2022-08-03T10:19:41;38.10;46.20
39865;DHT22;25538;48.392;9.976;2022-08-03T10:22:18;37.90;46.20
39865;DHT22;25538;48.392;9.976;2022-08-03T10:25:03;37.70;45.40
39865;DHT22;25538;48.392;9.976;2022-08-03T10:27:33;37.80;45.80
39865;DHT22;25538;48.392;9.976;2022-08-03T10:30:04;38.30;44.90
39865;DHT22;25538;48.392;9.976;2022-08-03T10:32:37;39.00;44.30
39865;DHT22;25538;48.392;9.976;2022-08-03T10:35:13;39.40;43.00
39865;DHT22;25538;48.392;9.976;2022-08-03T10:37:48;40.40;41.50
39865;DHT22;25538;48.392;9.976;2022-08-03T10:40:17;40.90;40.70
39865;DHT22;25538;48.392;9.976;2022-08-03T10:42:46;41.80;38.70
39865;DHT22;25538;48.392;9.976;2022-08-03T10:45:18;42.10;38.30
39865;DHT22;25538;48.392;9.976;2022-08-03T10:47:48;42.70;37.50
39865;DHT22;25538;48.392;9.976;2022-08-03T10:50:16;43.40;34.70
39865;DHT22;25538;48.392;9.976;2022-08-03T10:53:01;43.00;35.10
39865;DHT22;25538;48.392;9.976;2022-08-03T11:01:04;44.40;32.70
39865;DHT22;25538;48.392;9.976;2022-08-03T11:03:30;44.60;32.40
39865;DHT22;25538;48.392;9.976;2022-08-03T11:06:16;44.40;33.10
39865;DHT22;25538;48.392;9.976;2022-08-03T11:08:45;45.10;32.10
39865;DHT22;25538;48.392;9.976;2022-08-03T11:16:26;45.60;30.20
39865;DHT22;25538;48.392;9.976;2022-08-03T11:19:01;46.00;29.30
39865;DHT22;25538;48.392;9.976;2022-08-03T11:27:22;46.60;28.70
39865;DHT22;25538;48.392;9.976;2022-08-03T11:30:10;47.20;27.80
39865;DHT22;25538;48.392;9.976;2022-08-03T11:40:45;48.10;26.70
39865;DHT22;25538;48.392;9.976;2022-08-03T11:46:05;45.80;27.10
39865;DHT22;25538;48.392;9.976;2022-08-03T11:48:37;45.40;28.70
39865;DHT22;25538;48.392;9.976;2022-08-03T11:51:05;46.30;28.60
39865;DHT22;25538;48.392;9.976;2022-08-03T11:53:32;47.60;27.00
39865;DHT22;25538;48.392;9.976;2022-08-03T11:55:59;48.00;27.00
39865;DHT22;25538;48.392;9.976;2022-08-03T11:58:26;48.70;26.50
39865;DHT22;25538;48.392;9.976;2022-08-03T12:01:02;48.80;26.10
39865;DHT22;25538;48.392;9.976;2022-08-03T12:03:31;47.40;27.20
39865;DHT22;25538;48.392;9.976;2022-08-03T12:05:57;48.40;26.50
39865;DHT22;25538;48.392;9.976;2022-08-03T12:10:53;48.30;26.40
39865;DHT22;25538;48.392;9.976;2022-08-03T12:13:21;48.90;26.00
39865;DHT22;25538;48.392;9.976;2022-08-03T12:15:53;50.00;25.20
39865;DHT22;25538;48.392;9.976;2022-08-03T12:18:20;50.20;24.40
39865;DHT22;25538;48.392;9.976;2022-08-03T12:20:48;50.00;25.50
39865;DHT22;25538;48.392;9.976;2022-08-03T12:23:15;49.90;25.70
39865;DHT22;25538;48.392;9.976;2022-08-03T12:25:42;50.60;24.70
39865;DHT22;25538;48.392;9.976;2022-08-03T12:28:11;49.70;25.80
39865;DHT22;25538;48.392;9.976;2022-08-03T12:30:38;50.30;24.70
39865;DHT22;25538;48.392;9.976;2022-08-03T12:33:12;50.60;24.60
39865;DHT22;25538;48.392;9.976;2022-08-03T12:35:38;50.80;24.60
39865;DHT22;25538;48.392;9.976;2022-08-03T12:38:05;49.90;24.90
39865;DHT22;25538;48.392;9.976;2022-08-03T12:40:31;48.90;24.90
39865;DHT22;25538;48.392;9.976;2022-08-03T12:42:57;49.20;25.00
39865;DHT22;25538;48.392;9.976;2022-08-03T12:45:27;48.60;25.30
39865;DHT22;25538;48.392;9.976;2022-08-03T12:47:58;48.30;25.80
39865;DHT22;25538;48.392;9.976;2022-08-03T12:52:54;49.60;24.90
39865;DHT22;25538;48.392;9.976;2022-08-03T12:55:21;50.20;24.40
39865;DHT22;25538;48.392;9.976;2022-08-03T12:57:48;50.90;24.20
39865;DHT22;25538;48.392;9.976;2022-08-03T13:00:16;51.20;23.80
39865;DHT22;25538;48.392;9.976;2022-08-03T13:02:43;50.40;24.20
39865;DHT22;25538;48.392;9.976;2022-08-03T13:05:14;51.00;24.50
39865;DHT22;25538;48.392;9.976;2022-08-03T13:07:41;50.20;24.90
39865;DHT22;25538;48.392;9.976;2022-08-03T13:10:08;49.00;24.70
39865;DHT22;25538;48.392;9.976;2022-08-03T13:12:46;49.50;24.70
39865;DHT22;25538;48.392;9.976;2022-08-03T13:15:13;50.20;24.60
39865;DHT22;25538;48.392;9.976;2022-08-03T13:17:39;49.80;24.90
39865;DHT22;25538;48.392;9.976;2022-08-03T13:20:05;49.80;25.30
39865;DHT22;25538;48.392;9.976;2022-08-03T13:22:31;50.20;24.00
39865;DHT22;25538;48.392;9.976;2022-08-03T13:24:58;50.20;23.50
39865;DHT22;25538;48.392;9.976;2022-08-03T13:27:29;48.80;23.60
39865;DHT22;25538;48.392;9.976;2022-08-03T13:29:56;47.60;24.50
39865;DHT22;25538;48.392;9.976;2022-08-03T13:32:23;47.40;25.20
39865;DHT22;25538;48.392;9.976;2022-08-03T13:34:49;48.00;25.10
39865;DHT22;25538;48.392;9.976;2022-08-03T13:37:15;47.90;25.20
39865;DHT22;25538;48.392;9.976;2022-08-03T13:39:41;48.30;24.80
39865;DHT22;25538;48.392;9.976;2022-08-03T13:42:07;47.00;25.60
39865;DHT22;25538;48.392;9.976;2022-08-03T13:44:34;47.60;25.30
39865;DHT22;25538;48.392;9.976;2022-08-03T13:47:02;48.80;25.10
39865;DHT22;25538;48.392;9.976;2022-08-03T13:49:28;49.40;24.10
39865;DHT22;25538;48.392;9.976;2022-08-03T13:51:55;49.10;23.80
39865;DHT22;25538;48.392;9.976;2022-08-03T13:54:21;47.60;25.00
39865;DHT22;25538;48.392;9.976;2022-08-03T13:56:47;47.50;25.20
39865;DHT22;25538;48.392;9.976;2022-08-03T13:59:18;47.90;25.00
39865;DHT22;25538;48.392;9.976;2022-08-03T14:01:45;48.70;24.20
39865;DHT22;25538;48.392;9.976;2022-08-03T14:04:11;48.10;24.20
39865;DHT22;25538;48.392;9.976;2022-08-03T14:06:37;47.90;24.60
39865;DHT22;25538;48.392;9.976;2022-08-03T14:09:03;48.20;24.30
39865;DHT22;25538;48.392;9.976;2022-08-03T14:11:29;48.30;24.90
39865;DHT22;25538;48.392;9.976;2022-08-03T14:13:55;48.20;25.00
39865;DHT22;25538;48.392;9.976;2022-08-03T14:16:21;48.80;24.70
39865;DHT22;25538;48.392;9.976;2022-08-03T14:18:47;49.00;23.80
39865;DHT22;25538;48.392;9.976;2022-08-03T14:21:13;48.70;24.40
39865;DHT22;25538;48.392;9.976;2022-08-03T14:23:39;47.80;24.80
39865;DHT22;25538;48.392;9.976;2022-08-03T14:26:06;48.00;24.70
39865;DHT22;25538;48.392;9.976;2022-08-03T14:28:32;48.50;24.50
39865;DHT22;25538;48.392;9.976;2022-08-03T14:30:58;49.00;24.00
39865;DHT22;25538;48.392;9.976;2022-08-03T14:33:24;48.70;24.40
39865;DHT22;25538;48.392;9.976;2022-08-03T14:35:51;48.40;24.50
39865;DHT22;25538;48.392;9.976;2022-08-03T14:38:17;48.00;24.90
39865;DHT22;25538;48.392;9.976;2022-08-03T14:40:43;48.60;24.60
39865;DHT22;25538;48.392;9.976;2022-08-03T14:43:09;48.80;24.40
39865;DHT22;25538;48.392;9.976;2022-08-03T14:45:35;48.50;24.60
39865;DHT22;25538;48.392;9.976;2022-08-03T14:48:02;48.50;24.50
39865;DHT22;25538;48.392;9.976;2022-08-03T14:50:29;48.70;24.50
39865;DHT22;25538;48.392;9.976;2022-08-03T14:52:55;48.70;24.70
39865;DHT22;25538;48.392;9.976;2022-08-03T14:55:21;48.70;24.50
39865;DHT22;25538;48.392;9.976;2022-08-03T14:57:47;48.40;24.50
39865;DHT22;25538;48.392;9.976;2022-08-03T15:00:13;48.50;23.80
39865;DHT22;25538;48.392;9.976;2022-08-03T15:02:40;47.60;24.10
39865;DHT22;25538;48.392;9.976;2022-08-03T15:05:06;46.00;25.20
39865;DHT22;25538;48.392;9.976;2022-08-03T15:07:32;45.70;25.40
39865;DHT22;25538;48.392;9.976;2022-08-03T15:09:58;45.80;25.00
39865;DHT22;25538;48.392;9.976;2022-08-03T15:12:24;44.80;25.40
39865;DHT22;25538;48.392;9.976;2022-08-03T15:14:50;43.60;26.30
39865;DHT22;25538;48.392;9.976;2022-08-03T15:17:16;42.50;26.70
39865;DHT22;25538;48.392;9.976;2022-08-03T15:19:42;41.30;27.60
39865;DHT22;25538;48.392;9.976;2022-08-03T15:22:08;40.90;28.20
39865;DHT22;25538;48.392;9.976;2022-08-03T15:24:34;41.00;27.70
39865;DHT22;25538;48.392;9.976;2022-08-03T15:27:00;40.90;28.50
39865;DHT22;25538;48.392;9.976;2022-08-03T15:29:26;40.80;28.50
39865;DHT22;25538;48.392;9.976;2022-08-03T15:31:52;40.00;27.60
39865;DHT22;25538;48.392;9.976;2022-08-03T15:34:18;38.70;28.60
39865;DHT22;25538;48.392;9.976;2022-08-03T15:36:44;37.70;29.90
39865;DHT22;25538;48.392;9.976;2022-08-03T15:39:10;37.10;30.80
39865;DHT22;25538;48.392;9.976;2022-08-03T15:41:35;36.60;31.70
39865;DHT22;25538;48.392;9.976;2022-08-03T15:44:02;36.30;31.40
39865;DHT22;25538;48.392;9.976;2022-08-03T15:46:28;36.10;32.30
39865;DHT22;25538;48.392;9.976;2022-08-03T15:48:53;35.90;32.30
39865;DHT22;25538;48.392;9.976;2022-08-03T15:51:19;35.60;32.60
39865;DHT22;25538;48.392;9.976;2022-08-03T15:53:45;35.00;33.20
39865;DHT22;25538;48.392;9.976;2022-08-03T15:56:11;34.70;33.50
39865;DHT22;25538;48.392;9.976;2022-08-03T15:58:38;34.40;34.10
39865;DHT22;25538;48.392;9.976;2022-08-03T16:01:05;34.00;34.00
39865;DHT22;25538;48.392;9.976;2022-08-03T16:03:31;33.80;34.30
39865;DHT22;25538;48.392;9.976;2022-08-03T16:06:05;33.70;34.30
39865;DHT22;25538;48.392;9.976;2022-08-03T16:08:32;33.90;34.10
39865;DHT22;25538;48.392;9.976;2022-08-03T16:10:59;33.80;34.60
39865;DHT22;25538;48.392;9.976;2022-08-03T16:13:25;33.60;34.60
39865;DHT22;25538;48.392;9.976;2022-08-03T16:15:52;33.40;35.50